createdAt,value
2018-10-02T00:01:08.795Z,97496.42
2018-10-02T00:03:37.127Z,97493.61
2018-10-02T00:06:05.466Z,97496.13
2018-10-02T00:08:33.810Z,97497.59
2018-10-02T00:11:07.499Z,97493.30
2018-10-02T00:13:41.152Z,97494.22
2018-10-02T00:16:09.508Z,97497.23
2018-10-02T00:18:37.839Z,97493.80
2018-10-02T00:21:06.172Z,97498.31
2018-10-02T00:23:34.651Z,97502.02
2018-10-02T00:26:02.971Z,97506.19
2018-10-02T00:28:31.315Z,97496.61
2018-10-02T00:30:59.627Z,97499.01
2018-10-02T00:33:27.961Z,97492.63
2018-10-02T00:35:56.303Z,97498.00
2018-10-02T00:38:24.647Z,97495.33
2018-10-02T00:40:53.283Z,97493.97
2018-10-02T00:43:21.615Z,97492.29
2018-10-02T00:45:49.935Z,97486.52
2018-10-02T00:48:18.266Z,97484.70
2018-10-02T00:50:46.579Z,97483.75
2018-10-02T00:53:14.911Z,97473.02
2018-10-02T00:55:43.231Z,97478.68
2018-10-02T00:58:11.579Z,97473.05
2018-10-02T01:00:39.904Z,97466.99
2018-10-02T01:03:08.247Z,97473.31
2018-10-02T01:05:36.559Z,97469.31
2018-10-02T01:08:05.064Z,97464.20
2018-10-02T01:10:33.382Z,97462.41
2018-10-02T01:13:01.727Z,97468.34
2018-10-02T01:15:30.167Z,97460.34
2018-10-02T01:17:58.504Z,97461.62
2018-10-02T01:20:26.875Z,97454.97
2018-10-02T01:22:55.253Z,97447.63
2018-10-02T01:25:23.562Z,97443.04
2018-10-02T01:27:51.910Z,97435.54
2018-10-02T01:30:20.241Z,97439.63
2018-10-02T01:32:48.611Z,97445.20
2018-10-02T01:35:17.155Z,97438.44
2018-10-02T01:37:45.516Z,97434.02
2018-10-02T01:40:13.823Z,97429.66
2018-10-02T01:42:42.160Z,97435.70
2018-10-02T01:45:10.511Z,97441.55
2018-10-02T01:47:38.831Z,97444.01
2018-10-02T01:50:07.203Z,97446.45
2018-10-02T01:52:35.530Z,97447.10
2018-10-02T01:55:03.855Z,97456.53
2018-10-02T01:57:32.187Z,97451.61
2018-10-02T02:00:00.519Z,97456.22
2018-10-02T02:02:28.855Z,97452.25
2018-10-02T02:04:57.344Z,97456.83
2018-10-02T02:07:25.668Z,97461.85
2018-10-02T02:09:53.987Z,97454.75
2018-10-02T02:12:22.339Z,97451.78
2018-10-02T02:14:50.651Z,97451.53
2018-10-02T02:17:18.975Z,97446.51
2018-10-02T02:19:47.291Z,97457.47
2018-10-02T02:22:15.625Z,97449.22
2018-10-02T02:24:43.936Z,97454.58
2018-10-02T02:27:12.268Z,97459.36
2018-10-02T02:29:40.599Z,97456.39
2018-10-02T02:32:08.923Z,97459.88
2018-10-02T02:34:37.235Z,97462.58
2018-10-02T02:37:05.595Z,97463.09
2018-10-02T02:39:33.923Z,97455.67
2018-10-02T02:42:02.748Z,97454.68
2018-10-02T02:44:31.491Z,97459.69
2018-10-02T02:47:04.973Z,97454.36
2018-10-02T02:49:38.364Z,97461.00
2018-10-02T02:52:07.208Z,97465.88
2018-10-02T02:54:35.499Z,97459.77
2018-10-02T02:57:03.840Z,97456.08
2018-10-02T02:59:32.183Z,97452.05
2018-10-02T03:02:00.493Z,97445.42
2018-10-02T03:04:28.829Z,97449.22
2018-10-02T03:06:57.136Z,97444.27
2018-10-02T03:09:25.453Z,97435.39
2018-10-02T03:11:53.798Z,97433.89
2018-10-02T03:14:22.131Z,97434.50
2018-10-02T03:16:50.439Z,97428.73
2018-10-02T03:19:18.767Z,97437.89
2018-10-02T03:21:47.160Z,97446.83
2018-10-02T03:24:15.480Z,97447.65
2018-10-02T03:26:43.780Z,97442.59
2018-10-02T03:29:12.103Z,97435.48
2018-10-02T03:31:40.403Z,97440.52
2018-10-02T03:34:08.743Z,97449.97
2018-10-02T03:36:37.062Z,97450.21
2018-10-02T03:39:08.691Z,97441.53
2018-10-02T03:41:36.995Z,97429.80
2018-10-02T03:44:05.363Z,97417.66
2018-10-02T03:46:33.694Z,97425.67
2018-10-02T03:49:02.058Z,97432.95
2018-10-02T03:51:30.372Z,97435.38
2018-10-02T03:53:59.741Z,97435.95
2018-10-02T03:56:28.043Z,97417.05
2018-10-02T03:58:56.371Z,97420.25
2018-10-02T04:01:24.688Z,97421.95
2018-10-02T04:03:53.028Z,97418.58
2018-10-02T04:06:21.327Z,97422.27
2018-10-02T04:08:49.759Z,97405.98
2018-10-02T04:11:18.163Z,97412.64
2018-10-02T04:13:46.496Z,97412.79
2018-10-02T04:16:14.819Z,97422.28
2018-10-02T04:18:43.147Z,97415.75
2018-10-02T04:21:11.459Z,97403.98
2018-10-02T04:23:39.783Z,97409.81
2018-10-02T04:26:08.591Z,97408.86
2018-10-02T04:28:36.938Z,97410.53
2018-10-02T04:31:11.175Z,97401.06
2018-10-02T04:33:39.579Z,97399.47
2018-10-02T04:36:08.756Z,97398.47
2018-10-02T04:38:37.095Z,97397.38
2018-10-02T04:41:05.423Z,97404.30
2018-10-02T04:43:33.768Z,97389.59
2018-10-02T04:46:02.107Z,97388.36
2018-10-02T04:48:30.438Z,97392.13
2018-10-02T04:50:58.769Z,97385.66
2018-10-02T04:53:27.087Z,97386.29
2018-10-02T04:55:55.485Z,97380.78
2018-10-02T04:58:23.822Z,97373.30
2018-10-02T05:00:52.249Z,97375.00
2018-10-02T05:03:20.545Z,97377.63
2018-10-02T05:05:48.883Z,97381.52
2018-10-02T05:08:17.230Z,97365.16
2018-10-02T05:10:45.547Z,97376.57
2018-10-02T05:13:13.879Z,97376.28
2018-10-02T05:15:42.252Z,97370.49
2018-10-02T05:18:10.579Z,97362.34
2018-10-02T05:20:38.959Z,97376.47
2018-10-02T05:23:07.288Z,97360.59
2018-10-02T05:25:35.619Z,97355.79
2018-10-02T05:28:03.956Z,97353.95
2018-10-02T05:30:32.406Z,97366.27
2018-10-02T05:33:00.723Z,97356.78
2018-10-02T05:35:29.068Z,97368.77
2018-10-02T05:37:57.395Z,97368.36
2018-10-02T05:40:25.727Z,97357.81
2018-10-02T05:42:54.047Z,97356.91
2018-10-02T05:45:22.434Z,97356.47
2018-10-02T05:47:50.844Z,97363.14
2018-10-02T05:50:19.217Z,97372.52
2018-10-02T05:52:47.543Z,97369.29
2018-10-02T05:55:15.888Z,97362.94
2018-10-02T05:57:44.240Z,97360.31
2018-10-02T06:00:12.602Z,97359.61
2018-10-02T06:02:40.964Z,97360.38
2018-10-02T06:05:09.384Z,97354.69
2018-10-02T06:07:37.710Z,97354.63
2018-10-02T06:10:06.766Z,97349.58
2018-10-02T06:12:35.099Z,97350.20
2018-10-02T06:15:03.451Z,97348.53
2018-10-02T06:17:31.798Z,97354.71
2018-10-02T06:20:00.118Z,97351.88
2018-10-02T06:22:28.447Z,97350.47
2018-10-02T06:24:56.768Z,97340.53
2018-10-02T06:27:25.079Z,97337.64
2018-10-02T06:29:53.400Z,97339.07
2018-10-02T06:32:21.743Z,97346.33
2018-10-02T06:34:50.076Z,97349.41
2018-10-02T06:37:18.408Z,97342.02
2018-10-02T06:39:46.727Z,97354.02
2018-10-02T06:42:15.079Z,97360.41
2018-10-02T06:44:43.586Z,97372.69
2018-10-02T06:47:11.854Z,97367.36
2018-10-02T06:49:40.172Z,97354.67
2018-10-02T06:52:08.727Z,97350.73
2018-10-02T06:54:36.863Z,97352.64
2018-10-02T06:57:05.445Z,97350.67
2018-10-02T06:59:33.732Z,97353.74
2018-10-02T07:02:02.561Z,97340.25
2018-10-02T07:04:30.876Z,97340.55
2018-10-02T07:06:59.220Z,97339.55
2018-10-02T07:09:27.539Z,97335.42
2018-10-02T07:11:55.871Z,97328.02
2018-10-02T07:14:24.211Z,97331.63
2018-10-02T07:16:52.946Z,97325.40
2018-10-02T07:19:21.283Z,97330.80
2018-10-02T07:21:49.660Z,97329.66
2018-10-02T07:24:17.979Z,97334.14
2018-10-02T07:26:46.494Z,97337.71
2018-10-02T07:29:14.683Z,97342.88
2018-10-02T07:31:43.035Z,97337.24
2018-10-02T07:34:11.463Z,97333.19
2018-10-02T07:36:39.820Z,97343.53
2018-10-02T07:39:08.723Z,97331.11
2018-10-02T07:41:37.097Z,97340.13
2018-10-02T07:44:05.436Z,97326.30
2018-10-02T07:46:33.785Z,97329.18
2018-10-02T07:49:02.096Z,97327.83
2018-10-02T07:51:30.419Z,97321.56
2018-10-02T07:53:58.755Z,97322.33
2018-10-02T07:56:27.108Z,97323.39
2018-10-02T07:58:55.419Z,97331.52
2018-10-02T08:01:23.761Z,97330.91
2018-10-02T08:03:52.075Z,97338.32
2018-10-02T08:06:20.790Z,97338.52
2018-10-02T08:08:49.095Z,97351.01
2018-10-02T08:11:17.463Z,97348.91
2018-10-02T08:13:45.767Z,97337.66
2018-10-02T08:16:14.109Z,97338.96
2018-10-02T08:18:42.439Z,97344.34
2018-10-02T08:21:10.776Z,97346.30
2018-10-02T08:23:39.114Z,97342.02
2018-10-02T08:26:07.447Z,97358.91
2018-10-02T08:28:35.782Z,97357.48
2018-10-02T08:31:04.131Z,97355.75
2018-10-02T08:33:32.466Z,97351.08
2018-10-02T08:36:00.911Z,97340.11
2018-10-02T08:38:29.175Z,97347.05
2018-10-02T08:40:57.465Z,97318.59
2018-10-02T08:43:25.809Z,97313.47
2018-10-02T08:45:54.120Z,97314.62
2018-10-02T08:48:22.460Z,97320.34
2018-10-02T08:50:50.787Z,97317.42
2018-10-02T08:53:19.133Z,97326.77
2018-10-02T08:55:47.455Z,97333.17
2018-10-02T08:58:15.787Z,97328.21
2018-10-02T09:00:44.170Z,97326.68
2018-10-02T09:03:12.493Z,97325.54
2018-10-02T09:05:40.803Z,97322.24
2018-10-02T09:08:09.152Z,97320.12
2018-10-02T09:10:37.495Z,97327.47
2018-10-02T09:13:06.244Z,97329.67
2018-10-02T09:15:34.598Z,97318.23
2018-10-02T09:18:02.931Z,97316.56
2018-10-02T09:20:31.264Z,97313.03
2018-10-02T09:22:59.612Z,97318.21
2018-10-02T09:25:27.951Z,97313.59
2018-10-02T09:27:56.358Z,97317.67
2018-10-02T09:30:29.945Z,97306.19
2018-10-02T09:33:03.556Z,97305.61
2018-10-02T09:35:37.451Z,97313.86
2018-10-02T09:38:11.079Z,97300.71
2018-10-02T09:40:44.795Z,97302.16
2018-10-02T09:44:15.639Z,97303.91
2018-10-02T09:46:43.972Z,97294.93
2018-10-02T09:49:12.284Z,97290.31
2018-10-02T09:51:40.636Z,97279.36
2018-10-02T09:54:08.963Z,97292.91
2018-10-02T09:56:44.574Z,97261.14
2018-10-02T09:59:13.967Z,97259.20
2018-10-02T10:01:47.503Z,97262.52
2018-10-02T10:04:16.260Z,97266.09
2018-10-02T10:06:44.631Z,97264.61
2018-10-02T10:09:13.307Z,97254.90
2018-10-02T10:11:42.275Z,97270.26
2018-10-02T10:14:11.091Z,97270.22
2018-10-02T10:16:39.686Z,97256.78
2018-10-02T10:19:08.003Z,97258.94
2018-10-02T10:21:36.588Z,97242.92
2018-10-02T10:24:04.963Z,97254.24
2018-10-02T10:26:33.354Z,97245.04
2018-10-02T10:29:01.672Z,97252.40
2018-10-02T10:31:29.943Z,97257.99
2018-10-02T10:33:58.903Z,97251.41
2018-10-02T10:36:27.228Z,97237.99
2018-10-02T10:38:55.602Z,97242.84
2018-10-02T10:41:23.911Z,97238.58
2018-10-02T10:43:52.271Z,97240.16
2018-10-02T10:46:20.633Z,97253.56
2018-10-02T10:48:48.943Z,97235.84
2018-10-02T10:51:17.243Z,97242.71
2018-10-02T10:53:46.080Z,97239.25
2018-10-02T10:56:14.441Z,97241.45
2018-10-02T10:58:42.832Z,97235.72
2018-10-02T11:01:11.102Z,97220.20
2018-10-02T11:03:39.455Z,97227.41
2018-10-02T11:06:07.987Z,97224.48
2018-10-02T11:08:36.454Z,97217.03
2018-10-02T11:11:04.791Z,97225.53
2018-10-02T11:13:33.133Z,97213.88
2018-10-02T11:16:01.463Z,97199.16
2018-10-02T11:18:29.800Z,97218.01
2018-10-02T11:20:58.160Z,97215.16
2018-10-02T11:23:26.506Z,97216.73
2018-10-02T11:25:54.975Z,97212.74
2018-10-02T11:28:23.192Z,97203.11
2018-10-02T11:30:51.532Z,97210.02
2018-10-02T11:33:20.520Z,97221.33
2018-10-02T11:35:48.836Z,97196.66
2018-10-02T11:38:17.186Z,97217.21
2018-10-02T11:40:45.492Z,97208.80
2018-10-02T11:43:13.894Z,97214.38
2018-10-02T11:45:42.183Z,97208.72
2018-10-02T11:48:10.527Z,97196.37
2018-10-02T11:50:38.834Z,97196.81
2018-10-02T11:53:07.527Z,97204.37
2018-10-02T11:55:36.114Z,97199.48
2018-10-02T11:58:04.403Z,97217.51
2018-10-02T12:00:32.869Z,97214.88
2018-10-02T12:03:01.245Z,97213.20
2018-10-02T12:05:29.767Z,97213.59
2018-10-02T12:07:58.467Z,97201.66
2018-10-02T12:10:27.044Z,97205.24
2018-10-02T12:12:55.423Z,97201.89
2018-10-02T12:15:23.799Z,97197.81
2018-10-02T12:17:52.033Z,97192.59
2018-10-02T12:20:20.389Z,97186.31
2018-10-02T12:22:48.689Z,97179.45
2018-10-02T12:25:17.144Z,97187.72
2018-10-02T12:27:45.463Z,97183.98
2018-10-02T12:30:13.807Z,97179.56
2018-10-02T12:32:42.132Z,97180.48
2018-10-02T12:35:10.461Z,97172.88
2018-10-02T12:37:38.776Z,97182.45
2018-10-02T12:40:07.184Z,97182.82
2018-10-02T12:42:35.943Z,97178.92
2018-10-02T12:45:04.349Z,97183.48
2018-10-02T12:47:33.135Z,97181.70
2018-10-02T12:50:01.549Z,97192.32
2018-10-02T12:52:29.900Z,97189.31
2018-10-02T12:54:58.231Z,97190.02
2018-10-02T12:57:26.556Z,97192.51
2018-10-02T12:59:54.907Z,97193.14
2018-10-02T13:02:23.220Z,97186.65
2018-10-02T13:04:51.692Z,97189.95
2018-10-02T13:07:20.030Z,97188.32
2018-10-02T13:09:48.376Z,97200.01
2018-10-02T13:12:16.715Z,97185.85
2018-10-02T13:14:45.055Z,97185.70
2018-10-02T13:17:13.420Z,97179.17
2018-10-02T13:19:41.779Z,97185.08
2018-10-02T13:22:10.100Z,97188.09
2018-10-02T13:24:38.453Z,97190.05
2018-10-02T13:27:06.775Z,97183.26
2018-10-02T13:29:35.316Z,97167.00
2018-10-02T13:32:03.731Z,97175.74
2018-10-02T13:34:32.584Z,97169.36
2018-10-02T13:37:00.883Z,97161.67
2018-10-02T13:39:29.223Z,97165.55
2018-10-02T13:41:57.543Z,97164.86
2018-10-02T13:44:25.902Z,97168.75
2018-10-02T13:46:54.227Z,97164.11
2018-10-02T13:49:22.563Z,97160.91
2018-10-02T13:51:50.891Z,97158.92
2018-10-02T13:54:19.251Z,97161.70
2018-10-02T13:56:47.604Z,97168.03
2018-10-02T13:59:15.959Z,97179.77
2018-10-02T14:01:44.291Z,97178.56
2018-10-02T14:04:12.664Z,97179.28
2018-10-02T14:06:40.992Z,97175.37
2018-10-02T14:09:09.683Z,97173.18
2018-10-02T14:11:38.010Z,97177.84
2018-10-02T14:14:06.712Z,97176.67
2018-10-02T14:16:35.248Z,97185.88
2018-10-02T14:19:03.659Z,97180.92
2018-10-02T14:21:32.003Z,97184.38
2018-10-02T14:24:00.343Z,97188.78
2018-10-02T14:26:28.656Z,97185.80
2018-10-02T14:28:56.971Z,97185.09
2018-10-02T14:31:25.336Z,97192.56
2018-10-02T14:33:53.667Z,97184.93
2018-10-02T14:36:21.991Z,97197.59
2018-10-02T14:38:50.307Z,97197.88
2018-10-02T14:41:18.636Z,97192.33
2018-10-02T14:43:46.948Z,97189.23
2018-10-02T14:46:15.259Z,97187.17
2018-10-02T14:48:43.563Z,97187.24
2018-10-02T14:51:11.884Z,97192.17
2018-10-02T14:53:40.187Z,97179.01
2018-10-02T14:56:08.523Z,97182.28
2018-10-02T14:58:36.839Z,97186.82
2018-10-02T15:01:05.179Z,97190.77
2018-10-02T15:03:33.495Z,97189.81
2018-10-02T15:06:01.823Z,97196.02
2018-10-02T15:08:30.157Z,97195.97
2018-10-02T15:10:58.487Z,97202.25
2018-10-02T15:13:27.192Z,97194.97
2018-10-02T15:15:55.551Z,97199.77
2018-10-02T15:18:23.895Z,97205.22
2018-10-02T15:20:52.255Z,97208.12
2018-10-02T15:23:20.551Z,97201.20
2018-10-02T15:25:48.883Z,97203.55
2018-10-02T15:28:17.284Z,97203.71
2018-10-02T15:30:45.644Z,97211.13
2018-10-02T15:33:14.186Z,97204.53
2018-10-02T15:35:42.528Z,97192.98
2018-10-02T15:38:10.909Z,97195.42
2018-10-02T15:40:39.203Z,97182.95
2018-10-02T15:43:07.575Z,97191.05
2018-10-02T15:45:35.957Z,97197.94
2018-10-02T15:48:04.261Z,97195.76
2018-10-02T15:50:32.637Z,97189.05
2018-10-02T15:53:00.999Z,97188.77
2018-10-02T15:55:29.315Z,97191.53
2018-10-02T15:57:57.667Z,97190.28
2018-10-02T16:00:26.047Z,97188.05
2018-10-02T16:02:54.358Z,97184.03
2018-10-02T16:05:22.731Z,97190.08
2018-10-02T16:07:51.084Z,97199.09
2018-10-02T16:10:19.415Z,97195.02
2018-10-02T16:12:47.731Z,97197.77
2018-10-02T16:15:16.067Z,97180.48
2018-10-02T16:17:44.372Z,97171.84
2018-10-02T16:20:12.723Z,97183.45
2018-10-02T16:22:41.036Z,97190.47
2018-10-02T16:25:09.462Z,97191.34
2018-10-02T16:27:37.800Z,97194.77
2018-10-02T16:30:06.168Z,97199.38
2018-10-02T16:32:34.496Z,97191.89
2018-10-02T16:35:02.835Z,97203.94
2018-10-02T16:37:31.155Z,97203.09
2018-10-02T16:39:59.536Z,97191.80
2018-10-02T16:42:27.862Z,97218.11
2018-10-02T16:44:56.199Z,97216.86
2018-10-02T16:47:24.547Z,97220.00
2018-10-02T16:49:52.856Z,97209.20
2018-10-02T16:52:21.216Z,97219.16
2018-10-02T16:54:49.521Z,97217.33
2018-10-02T16:57:18.073Z,97219.83
2018-10-02T16:59:46.344Z,97220.65
2018-10-02T17:02:14.816Z,97228.62
2018-10-02T17:04:43.143Z,97233.77
2018-10-02T17:07:11.483Z,97225.73
2018-10-02T17:09:39.787Z,97240.91
2018-10-02T17:12:08.163Z,97229.47
2018-10-02T17:14:36.471Z,97246.64
2018-10-02T17:17:05.192Z,97234.39
2018-10-02T17:19:33.504Z,97239.89
2018-10-02T17:22:01.839Z,97238.06
2018-10-02T17:24:30.140Z,97244.75
2018-10-02T17:26:58.715Z,97256.72
2018-10-02T17:29:27.055Z,97249.84
2018-10-02T17:31:55.411Z,97249.20
2018-10-02T17:34:24.280Z,97244.14
2018-10-02T17:36:52.631Z,97250.02
2018-10-02T17:39:20.946Z,97256.20
2018-10-02T17:41:49.275Z,97266.63
2018-10-02T17:44:17.603Z,97258.53
2018-10-02T17:46:45.968Z,97258.32
2018-10-02T17:49:14.296Z,97267.78
2018-10-02T17:51:43.084Z,97265.89
2018-10-02T17:54:11.404Z,97270.03
2018-10-02T17:56:39.767Z,97267.61
2018-10-02T17:59:08.107Z,97268.25
2018-10-02T18:01:36.509Z,97264.52
2018-10-02T18:04:04.792Z,97264.67
2018-10-02T18:06:33.152Z,97268.98
2018-10-02T18:09:01.477Z,97270.46
2018-10-02T18:11:29.830Z,97281.65
2018-10-02T18:13:58.160Z,97278.50
2018-10-02T18:16:27.075Z,97289.98
2018-10-02T18:18:55.391Z,97291.66
2018-10-02T18:21:23.707Z,97299.53
2018-10-02T18:23:52.011Z,97306.23
2018-10-02T18:26:20.331Z,97302.79
2018-10-02T18:28:48.631Z,97305.77
2018-10-02T18:31:16.939Z,97315.95
2018-10-02T18:33:45.236Z,97308.16
2018-10-02T18:36:13.548Z,97307.92
2018-10-02T18:38:41.853Z,97306.92
2018-10-02T18:41:10.200Z,97310.09
2018-10-02T18:43:38.507Z,97312.02
2018-10-02T18:46:06.835Z,97314.35
2018-10-02T18:48:35.176Z,97303.92
2018-10-02T18:51:03.468Z,97312.05
2018-10-02T18:53:31.918Z,97321.14
2018-10-02T18:56:00.339Z,97315.52
2018-10-02T18:58:28.579Z,97316.36
2018-10-02T19:00:56.886Z,97315.92
2018-10-02T19:03:25.179Z,97317.28
2018-10-02T19:05:53.600Z,97312.50
2018-10-02T19:08:26.892Z,97318.08
2018-10-02T19:10:59.180Z,97310.33
2018-10-02T19:13:27.495Z,97300.73
2018-10-02T19:16:01.054Z,97310.58
2018-10-02T19:18:29.352Z,97311.62
2018-10-02T19:20:57.711Z,97322.18
2018-10-02T19:23:26.462Z,97319.79
2018-10-02T19:26:00.363Z,97319.70
2018-10-02T19:28:28.656Z,97317.42
2018-10-02T19:31:02.143Z,97324.57
2018-10-02T19:33:30.435Z,97315.03
2018-10-02T19:35:58.724Z,97321.68
2018-10-02T19:38:32.123Z,97327.41
2018-10-02T19:41:01.515Z,97322.87
2018-10-02T19:43:29.827Z,97315.06
2018-10-02T19:46:03.500Z,97325.23
2018-10-02T19:48:31.831Z,97323.23
2018-10-02T19:51:05.767Z,97327.03
2018-10-02T19:53:34.095Z,97313.62
2018-10-02T19:56:02.400Z,97327.03
2018-10-02T19:58:30.747Z,97327.41
2018-10-02T20:00:59.051Z,97328.39
2018-10-02T20:03:27.383Z,97318.98
2018-10-02T20:05:57.557Z,97320.84
2018-10-02T20:08:26.839Z,97312.52
2018-10-02T20:10:55.297Z,97310.94
2018-10-02T20:13:23.769Z,97309.38
2018-10-02T20:15:52.044Z,97307.59
2018-10-02T20:18:20.356Z,97301.88
2018-10-02T20:20:48.660Z,97310.91
2018-10-02T20:23:16.983Z,97295.17
2018-10-02T20:25:45.272Z,97303.49
2018-10-02T20:28:13.591Z,97307.83
2018-10-02T20:30:41.895Z,97307.30
2018-10-02T20:33:10.195Z,97312.25
2018-10-02T20:35:38.479Z,97312.14
2018-10-02T20:38:06.883Z,97312.14
2018-10-02T20:40:35.166Z,97315.85
2018-10-02T20:43:03.567Z,97319.90
2018-10-02T20:45:31.855Z,97312.61
2018-10-02T20:48:00.148Z,97319.77
2018-10-02T20:50:28.428Z,97327.77
2018-10-02T20:52:56.723Z,97325.84
2018-10-02T20:55:25.044Z,97320.53
2018-10-02T20:57:53.380Z,97316.27
2018-10-02T21:00:21.647Z,97317.37
2018-10-02T21:02:49.959Z,97322.88
2018-10-02T21:05:18.256Z,97325.97
2018-10-02T21:07:47.028Z,97323.63
2018-10-02T21:10:15.324Z,97324.90
2018-10-02T21:12:43.635Z,97310.04
2018-10-02T21:15:12.392Z,97298.26
2018-10-02T21:17:40.653Z,97304.44
2018-10-02T21:20:09.032Z,97298.33
2018-10-02T21:22:37.471Z,97302.63
2018-10-02T21:25:05.939Z,97309.86
2018-10-02T21:27:34.276Z,97304.04
2018-10-02T21:30:02.572Z,97303.70
2018-10-02T21:32:30.879Z,97306.45
2018-10-02T21:34:59.183Z,97307.32
2018-10-02T21:37:27.483Z,97307.87
2018-10-02T21:39:56.185Z,97296.59
2018-10-02T21:42:24.471Z,97306.34
2018-10-02T21:44:52.801Z,97305.23
2018-10-02T21:47:21.084Z,97321.28
2018-10-02T21:49:49.402Z,97316.02
2018-10-02T21:52:17.906Z,97317.62
2018-10-02T21:54:47.279Z,97316.42
2018-10-02T21:57:15.571Z,97315.59
2018-10-02T21:59:43.884Z,97317.44
2018-10-02T22:02:12.180Z,97307.53
2018-10-02T22:04:40.848Z,97298.07
2018-10-02T22:07:09.408Z,97295.48
2018-10-02T22:09:37.712Z,97305.67
2018-10-02T22:12:06.603Z,97298.45
2018-10-02T22:14:34.967Z,97297.86
2018-10-02T22:17:03.264Z,97298.78
2018-10-02T22:19:31.583Z,97300.96
2018-10-02T22:21:59.879Z,97295.09
2018-10-02T22:24:28.244Z,97302.02
2018-10-02T22:26:56.546Z,97299.84
2018-10-02T22:29:24.851Z,97297.70
2018-10-02T22:31:53.136Z,97291.79
2018-10-02T22:34:21.447Z,97295.00
2018-10-02T22:36:50.179Z,97287.23
2018-10-02T22:39:18.503Z,97292.08
2018-10-02T22:41:46.777Z,97293.15
2018-10-02T22:44:15.635Z,97293.22
2018-10-02T22:46:43.928Z,97287.91
2018-10-02T22:49:12.248Z,97294.96
2018-10-02T22:51:40.555Z,97287.38
2018-10-02T22:54:08.868Z,97288.73
2018-10-02T22:56:37.182Z,97283.94
2018-10-02T22:59:05.507Z,97296.78
2018-10-02T23:01:33.811Z,97288.19
2018-10-02T23:04:02.129Z,97287.96
2018-10-02T23:06:30.424Z,97288.73
2018-10-02T23:08:58.742Z,97284.45
2018-10-02T23:11:27.020Z,97287.08
2018-10-02T23:13:55.351Z,97294.09
2018-10-02T23:16:23.655Z,97299.47
2018-10-02T23:18:52.260Z,97290.64
2018-10-02T23:21:20.568Z,97286.39
2018-10-02T23:23:49.147Z,97289.66
2018-10-02T23:26:17.611Z,97288.09
2018-10-02T23:28:45.895Z,97273.61
2018-10-02T23:31:14.219Z,97278.11
2018-10-02T23:33:42.527Z,97271.20
2018-10-02T23:36:10.843Z,97288.86
2018-10-02T23:38:39.139Z,97280.80
2018-10-02T23:41:07.959Z,97287.25
2018-10-02T23:43:36.243Z,97284.63
2018-10-02T23:46:04.584Z,97285.16
2018-10-02T23:48:32.875Z,97282.25
2018-10-02T23:51:01.235Z,97282.54
2018-10-02T23:53:29.527Z,97283.02
2018-10-02T23:55:57.900Z,97295.15
2018-10-02T23:58:26.331Z,97282.08
